Time;durP1;ratioP1;P1;durP2;ratioP2;P2;SDS_P1;SDS_P2;PMS_P1;PMS_P2;Temp;Humidity;BMP_temperature;BMP_pressure;BME280_temperature;BME280_humidity;BME280_pressure;Samples;Min_cycle;Max_cycle;Signal;HPM_P1;HPM_P2
2023/04/16 00:01:25;;;;;;;;;;;;;;;5.92;100.00;96254.34;5098163;28;19983;-88
2023/04/16 00:03:53;;;;;;;;;;;;;;;5.91;100.00;96252.69;5108709;28;19942;-88
2023/04/16 00:06:20;;;;;;;;;;;;;;;5.88;100.00;96261.13;5110566;28;19924;-88
2023/04/16 00:08:47;;;;;;;;;;;;;;;5.91;100.00;96254.56;5102834;28;19924;-88
2023/04/16 00:11:13;;;;;;;;;;;;;;;5.89;100.00;96260.13;5107704;28;19928;-88
2023/04/16 00:13:40;;;;;;;;;;;;;;;5.89;100.00;96262.78;5108698;28;19923;-90
2023/04/16 00:16:07;;;;;;;;;;;;;;;5.86;100.00;96263.19;5109850;28;19931;-89
2023/04/16 00:18:34;;;;;;;;;;;;;;;5.87;100.00;96259.44;5106414;28;19993;-88
2023/04/16 00:21:02;;;;;;;;;;;;;;;5.91;100.00;96268.78;5098363;28;19941;-89
2023/04/16 00:23:29;;;;;;;;;;;;;;;5.85;100.00;96261.53;5111665;28;19970;-89
2023/04/16 00:25:58;;;;;;;;;;;;;;;5.81;100.00;96257.59;5099087;28;19935;-88
2023/04/16 00:28:26;;;;;;;;;;;;;;;5.83;100.00;96250.19;5107497;28;19928;-90
2023/04/16 00:30:53;;;;;;;;;;;;;;;5.86;100.00;96260.50;5091124;28;19930;-89
2023/04/16 00:33:20;;;;;;;;;;;;;;;5.85;100.00;96260.69;5095508;28;19951;-90
2023/04/16 00:35:47;;;;;;;;;;;;;;;5.86;100.00;96257.00;5102412;28;19928;-88
2023/04/16 00:38:15;;;;;;;;;;;;;;;5.88;100.00;96255.78;5105257;28;20023;-89
2023/04/16 00:40:42;;;;;;;;;;;;;;;5.89;100.00;96260.13;5106665;28;19930;-89
2023/04/16 00:43:12;;;;;;;;;;;;;;;5.91;100.00;96258.06;5108189;28;19931;-88
2023/04/16 00:45:39;;;;;;;;;;;;;;;5.92;100.00;96254.34;5117787;28;19924;-89
2023/04/16 00:48:05;;;;;;;;;;;;;;;5.96;100.00;96258.25;5110017;28;19928;-89
2023/04/16 00:50:33;;;;;;;;;;;;;;;5.98;100.00;96261.56;5109494;28;19977;-90
2023/04/16 00:53:01;;;;;;;;;;;;;;;5.97;100.00;96265.28;5106815;28;19912;-89
2023/04/16 00:55:29;;;;;;;;;;;;;;;5.96;100.00;96258.25;5107038;28;20618;-90
2023/04/16 00:57:56;;;;;;;;;;;;;;;5.93;100.00;96260.53;5098324;28;19923;-89
2023/04/16 01:00:23;;;;;;;;;;;;;;;5.95;100.00;96259.31;5110908;28;19923;-88
2023/04/16 01:02:50;;;;;;;;;;;;;;;6.02;100.00;96268.19;5109573;28;19934;-87
2023/04/16 01:05:17;;;;;;;;;;;;;;;6.01;100.00;96266.53;5108562;28;20010;-88
2023/04/16 01:07:44;;;;;;;;;;;;;;;6.02;100.00;96272.72;5111465;28;19924;-89
2023/04/16 01:10:11;;;;;;;;;;;;;;;6.03;100.00;96259.13;5115665;28;19928;-89
2023/04/16 01:12:39;;;;;;;;;;;;;;;6.07;100.00;96263.03;5113557;28;19973;-89
2023/04/16 01:15:07;;;;;;;;;;;;;;;6.07;100.00;96260.34;5104699;28;19924;-89
2023/04/16 01:17:33;;;;;;;;;;;;;;;6.05;100.00;96257.03;5106833;28;19938;-87
2023/04/16 01:20:00;;;;;;;;;;;;;;;6.05;100.00;96259.72;5105637;28;19966;-90
2023/04/16 01:22:28;;;;;;;;;;;;;;;6.07;100.00;96265.72;5112176;28;19959;-89
2023/04/16 01:24:55;;;;;;;;;;;;;;;6.02;100.00;96262.84;5110397;28;19931;-88
2023/04/16 01:27:23;;;;;;;;;;;;;;;6.01;100.00;96258.50;5110907;28;19995;-88
2023/04/16 01:29:50;;;;;;;;;;;;;;;6.02;100.00;96262.84;5111476;28;19981;-90
2023/04/16 01:32:21;;;;;;;;;;;;;;;6.01;100.00;96263.03;5108665;28;20005;-90
2023/04/16 01:34:48;;;;;;;;;;;;;;;6.01;100.00;96263.03;5112713;28;19924;-89
2023/04/16 01:37:15;;;;;;;;;;;;;;;6.03;100.00;96269.03;5111692;28;20019;-88
2023/04/16 01:39:43;;;;;;;;;;;;;;;5.98;100.00;96272.28;5111119;28;19923;-87
2023/04/16 01:42:10;;;;;;;;;;;;;;;5.98;100.00;96274.16;5114054;28;19931;-89
2023/04/16 01:44:37;;;;;;;;;;;;;;;5.95;100.00;96266.53;5114136;28;19924;-88
2023/04/16 01:47:04;;;;;;;;;;;;;;;5.93;100.00;96268.59;5112906;28;19924;-89
2023/04/16 01:49:32;;;;;;;;;;;;;;;5.91;100.00;96276.81;5109146;28;19924;-89
2023/04/16 01:51:59;;;;;;;;;;;;;;;5.88;100.00;96269.19;5110840;28;20057;-89
2023/04/16 01:54:26;;;;;;;;;;;;;;;5.92;100.00;96273.13;5108310;28;19937;-87
2023/04/16 01:56:54;;;;;;;;;;;;;;;5.89;100.00;96276.19;5105810;28;19930;-88
2023/04/16 01:59:21;;;;;;;;;;;;;;;5.88;100.00;96271.84;5110201;28;19990;-88
2023/04/16 02:01:48;;;;;;;;;;;;;;;5.90;100.00;96275.16;5110579;28;19930;-89
2023/04/16 02:04:15;;;;;;;;;;;;;;;5.87;100.00;96272.84;5107596;28;19931;-86
2023/04/16 02:06:42;;;;;;;;;;;;;;;5.80;100.00;96276.53;5099406;28;19930;-88
2023/04/16 02:09:08;;;;;;;;;;;;;;;5.82;100.00;96277.16;5108523;28;19927;-88
2023/04/16 02:11:37;;;;;;;;;;;;;;;5.80;100.00;96281.91;5106604;28;19989;-87
2023/04/16 02:14:07;;;;;;;;;;;;;;;5.80;100.00;96268.50;5108516;28;19939;-86
2023/04/16 02:16:34;;;;;;;;;;;;;;;5.76;100.00;96270.78;5111507;28;20022;-89
2023/04/16 02:19:11;;;;;;;;;;;;;;;5.75;100.00;96281.69;5102547;28;19973;-88
2023/04/16 02:21:38;;;;;;;;;;;;;;;5.73;100.00;96273.84;5118556;27;19924;-88
2023/04/16 02:24:05;;;;;;;;;;;;;;;5.76;100.00;96280.66;5099382;28;19924;-88
2023/04/16 02:26:32;;;;;;;;;;;;;;;5.75;100.00;96276.34;5107785;28;20019;-88
2023/04/16 02:29:06;;;;;;;;;;;;;;;5.73;100.00;96273.84;5107451;28;19971;-88
2023/04/16 02:31:41;;;;;;;;;;;;;;;5.71;100.00;96275.91;5108983;28;19924;-88
2023/04/16 02:34:10;;;;;;;;;;;;;;;5.73;100.00;96279.22;5111977;28;19923;-89
2023/04/16 02:36:36;;;;;;;;;;;;;;;5.67;100.00;96282.72;5105943;28;19991;-88
2023/04/16 02:39:04;;;;;;;;;;;;;;;5.68;100.00;96284.38;5105928;28;19935;-89
2023/04/16 02:41:31;;;;;;;;;;;;;;;5.66;100.00;96278.38;5110471;28;19931;-87
2023/04/16 02:43:58;;;;;;;;;;;;;;;5.63;100.00;96286.78;5102104;28;19924;-87
2023/04/16 02:46:26;;;;;;;;;;;;;;;5.65;100.00;96288.25;5094285;28;19931;-88
2023/04/16 02:48:53;;;;;;;;;;;;;;;5.62;100.00;96290.50;5109866;28;20015;-87
2023/04/16 02:51:20;;;;;;;;;;;;;;;5.63;100.00;96284.13;5100766;28;19924;-87
2023/04/16 02:53:47;;;;;;;;;;;;;;;5.64;100.00;96286.59;5106633;28;19928;-86
2023/04/16 02:56:14;;;;;;;;;;;;;;;5.65;100.00;96292.78;5109218;28;19924;-85
2023/04/16 02:58:41;;;;;;;;;;;;;;;5.70;100.00;96298.34;5107976;28;19924;-87
2023/04/16 03:01:07;;;;;;;;;;;;;;;5.66;100.00;96292.59;5105729;28;19924;-87
2023/04/16 03:03:36;;;;;;;;;;;;;;;5.65;100.00;96292.78;5111804;28;19924;-88
2023/04/16 03:06:03;;;;;;;;;;;;;;;5.66;100.00;96300.63;5104467;28;19923;-88
2023/04/16 03:08:30;;;;;;;;;;;;;;;5.64;100.00;96299.16;5102991;28;19987;-88
2023/04/16 03:10:57;;;;;;;;;;;;;;;5.63;100.00;96298.34;5106937;28;19982;-87
2023/04/16 03:13:23;;;;;;;;;;;;;;;5.68;100.00;96293.22;5109023;28;20010;-88
2023/04/16 03:15:50;;;;;;;;;;;;;;;5.65;100.00;96293.63;5111646;28;19934;-89
2023/04/16 03:18:17;;;;;;;;;;;;;;;5.62;100.00;96295.84;5111201;28;19991;-86
2023/04/16 03:20:45;;;;;;;;;;;;;;;5.62;100.00;96303.88;5110790;28;19931;-86
2023/04/16 03:23:13;;;;;;;;;;;;;;;5.60;100.00;96306.78;5109739;28;20002;-86
2023/04/16 03:25:40;;;;;;;;;;;;;;;5.61;100.00;96308.41;5110532;28;19924;-87
2023/04/16 03:28:08;;;;;;;;;;;;;;;5.62;100.00;96301.22;5110952;28;19963;-86
2023/04/16 03:30:35;;;;;;;;;;;;;;;5.59;100.00;96305.13;5101754;28;19923;-87
2023/04/16 03:33:02;;;;;;;;;;;;;;;5.59;100.00;96298.97;5118957;27;20114;-87
2023/04/16 03:35:29;;;;;;;;;;;;;;;5.58;100.00;96295.44;5126414;27;19969;-86
2023/04/16 03:37:58;;;;;;;;;;;;;;;5.56;100.00;96307.38;5111339;27;19931;-87
2023/04/16 03:40:25;;;;;;;;;;;;;;;5.52;100.00;96301.63;5107085;27;20004;-86
2023/04/16 03:42:53;;;;;;;;;;;;;;;5.56;100.00;96304.69;5109234;28;19924;-86
2023/04/16 03:45:19;;;;;;;;;;;;;;;5.51;100.00;96307.16;5106990;28;19986;-87
2023/04/16 03:47:51;;;;;;;;;;;;;;;5.48;100.00;96310.22;5100627;28;19927;-84
2023/04/16 03:50:19;;;;;;;;;;;;;;;5.44;100.00;96312.50;5110104;28;20033;-87
2023/04/16 03:52:48;;;;;;;;;;;;;;;5.53;100.00;96315.84;5110176;28;19967;-86
2023/04/16 03:55:17;;;;;;;;;;;;;;;5.49;100.00;96322.59;5106789;28;19946;-86
2023/04/16 03:57:44;;;;;;;;;;;;;;;5.53;100.00;96321.97;5104646;28;19938;-86
2023/04/16 04:00:14;;;;;;;;;;;;;;;5.53;100.00;96315.84;5109494;28;19945;-86
2023/04/16 04:02:59;;;;;;;;;;;;;;;5.57;100.00;96312.53;5109747;28;19930;-87
2023/04/16 04:05:27;;;;;;;;;;;;;;;5.51;100.00;96317.88;5109397;28;19928;-86
2023/04/16 04:07:54;;;;;;;;;;;;;;;5.49;100.00;96322.59;5110663;28;19950;-87
2023/04/16 04:10:22;;;;;;;;;;;;;;;5.49;100.00;96319.91;5111087;28;19954;-86
2023/04/16 04:12:49;;;;;;;;;;;;;;;5.44;100.00;96323.22;5106179;28;20310;-85
2023/04/16 04:15:15;;;;;;;;;;;;;;;5.45;100.00;96321.31;5110616;28;19924;-86
2023/04/16 04:17:42;;;;;;;;;;;;;;;5.47;100.00;96324.63;5108328;28;19924;-87
2023/04/16 04:20:10;;;;;;;;;;;;;;;5.48;100.00;96318.25;5093683;28;19931;-85
2023/04/16 04:22:37;;;;;;;;;;;;;;;5.42;100.00;96322.56;5103034;28;19931;-85
2023/04/16 04:25:04;;;;;;;;;;;;;;;5.38;100.00;96323.16;5110867;28;19930;-86
2023/04/16 04:27:33;;;;;;;;;;;;;;;5.39;100.00;96319.44;5110300;28;19957;-86
2023/04/16 04:30:00;;;;;;;;;;;;;;;5.36;100.00;96325.22;5102420;28;19930;-87
2023/04/16 04:32:27;;;;;;;;;;;;;;;5.41;100.00;96326.28;5095940;28;19971;-86
2023/04/16 04:34:54;;;;;;;;;;;;;;;5.37;100.00;96329.53;5106935;28;19935;-86
2023/04/16 04:37:21;;;;;;;;;;;;;;;5.34;100.00;96328.09;5098821;28;19959;-85
2023/04/16 04:39:48;;;;;;;;;;;;;;;5.33;100.00;96337.16;5108639;28;20001;-87
2023/04/16 04:42:15;;;;;;;;;;;;;;;5.31;100.00;96325.81;5106126;28;19924;-86
2023/04/16 04:44:43;;;;;;;;;;;;;;;5.34;100.00;96338.81;5112112;28;19935;-86
2023/04/16 04:47:10;;;;;;;;;;;;;;;5.33;100.00;96339.81;5107683;28;19925;-86
2023/04/16 04:49:37;;;;;;;;;;;;;;;5.38;100.00;96340.03;5111654;28;20030;-86
2023/04/16 04:52:03;;;;;;;;;;;;;;;5.42;100.00;96332.47;5112014;28;19987;-87
2023/04/16 04:54:32;;;;;;;;;;;;;;;5.27;100.00;96346.78;5108983;28;19963;-85
2023/04/16 04:56:59;;;;;;;;;;;;;;;5.31;100.00;96345.38;5111748;28;19991;-86
2023/04/16 04:59:25;;;;;;;;;;;;;;;5.28;100.00;96351.09;5113404;28;19923;-85
2023/04/16 05:01:54;;;;;;;;;;;;;;;5.28;100.00;96351.09;5096609;28;19932;-86
2023/04/16 05:04:21;;;;;;;;;;;;;;;5.28;100.00;96356.47;5128580;27;19924;-86
2023/04/16 05:06:47;;;;;;;;;;;;;;;5.34;100.00;96354.88;5100768;28;20030;-86
2023/04/16 05:09:14;;;;;;;;;;;;;;;5.30;100.00;96362.47;5107836;28;19963;-86
2023/04/16 05:11:41;;;;;;;;;;;;;;;5.33;100.00;96354.03;5108062;28;19935;-86
2023/04/16 05:14:08;;;;;;;;;;;;;;;5.29;100.00;96363.47;5102712;28;19953;-86
2023/04/16 05:16:36;;;;;;;;;;;;;;;5.33;100.00;96363.91;5107778;28;19930;-86
2023/04/16 05:19:04;;;;;;;;;;;;;;;5.35;100.00;96363.72;5108102;28;19938;-87
2023/04/16 05:21:31;;;;;;;;;;;;;;;5.37;100.00;96356.31;5108935;28;19930;-86
2023/04/16 05:23:58;;;;;;;;;;;;;;;5.33;100.00;96359.41;5109152;28;19923;-86
2023/04/16 05:26:25;;;;;;;;;;;;;;;5.31;100.00;96366.78;5108052;28;19924;-86
2023/04/16 05:28:52;;;;;;;;;;;;;;;5.34;100.00;96360.22;5106413;28;19971;-87
2023/04/16 05:31:19;;;;;;;;;;;;;;;5.35;100.00;96366.41;5111440;28;19924;-87
2023/04/16 05:33:46;;;;;;;;;;;;;;;5.32;100.00;96365.78;5106869;28;19947;-84
2023/04/16 05:36:14;;;;;;;;;;;;;;;5.30;100.00;96373.16;5106716;28;19938;-86
2023/04/16 05:38:41;;;;;;;;;;;;;;;5.29;100.00;96368.84;5108437;28;19930;-87
2023/04/16 05:41:08;;;;;;;;;;;;;;;5.34;100.00;96365.56;5104555;28;19924;-86
2023/04/16 05:43:35;;;;;;;;;;;;;;;5.33;100.00;96370.09;5102943;28;19970;-85
2023/04/16 05:46:01;;;;;;;;;;;;;;;5.33;100.00;96367.44;5103866;28;20000;-87
2023/04/16 05:48:28;;;;;;;;;;;;;;;5.33;100.00;96375.47;5109073;28;19962;-86
2023/04/16 05:50:55;;;;;;;;;;;;;;;5.38;100.00;96377.53;5106089;28;19993;-83
2023/04/16 05:53:23;;;;;;;;;;;;;;;5.40;100.00;96380.03;5104731;28;19950;-87
2023/04/16 05:55:50;;;;;;;;;;;;;;;5.33;100.00;96388.84;5106170;28;19924;-86
2023/04/16 05:58:16;;;;;;;;;;;;;;;5.34;100.00;96389.69;5104868;28;19931;-87
2023/04/16 06:00:43;;;;;;;;;;;;;;;5.33;100.00;96388.84;5105273;28;20018;-87
2023/04/16 06:03:10;;;;;;;;;;;;;;;5.34;100.00;96397.72;5105842;28;19967;-87
2023/04/16 06:05:37;;;;;;;;;;;;;;;5.40;100.00;96390.72;5110128;28;19963;-86
2023/04/16 06:08:04;;;;;;;;;;;;;;;5.45;100.00;96390.94;5109362;28;19923;-87
2023/04/16 06:10:32;;;;;;;;;;;;;;;5.45;100.00;96393.63;5109282;28;19959;-86
2023/04/16 06:12:59;;;;;;;;;;;;;;;5.46;100.00;96392.59;5100330;27;19924;-87
2023/04/16 06:15:25;;;;;;;;;;;;;;;5.51;100.00;96395.53;5112549;28;19946;-87
2023/04/16 06:17:52;;;;;;;;;;;;;;;5.49;100.00;96405.63;5112303;27;20027;-86
2023/04/16 06:20:19;;;;;;;;;;;;;;;5.56;100.00;96403.78;5106635;28;19967;-85
2023/04/16 06:22:46;;;;;;;;;;;;;;;5.50;100.00;96405.44;5096522;28;19924;-87
2023/04/16 06:25:13;;;;;;;;;;;;;;;5.51;100.00;96403.56;5102486;28;19936;-86
2023/04/16 06:27:41;;;;;;;;;;;;;;;5.52;100.00;96406.06;5108735;28;19989;-87
2023/04/16 06:30:14;;;;;;;;;;;;;;;5.50;100.00;96402.75;5110738;28;19928;-87
2023/04/16 06:32:42;;;;;;;;;;;;;;;5.52;100.00;96411.41;5110088;28;19930;-86
2023/04/16 06:35:09;;;;;;;;;;;;;;;5.56;100.00;96406.47;5107291;28;19930;-88
2023/04/16 06:37:36;;;;;;;;;;;;;;;5.57;100.00;96408.13;5093640;28;19931;-87
2023/04/16 06:40:02;;;;;;;;;;;;;;;5.60;100.00;96408.56;5110446;28;19946;-87
2023/04/16 06:42:29;;;;;;;;;;;;;;;5.65;100.00;96406.13;5111466;28;19931;-86
2023/04/16 06:44:57;;;;;;;;;;;;;;;5.69;100.00;96412.75;5113535;28;19924;-88
2023/04/16 06:47:24;;;;;;;;;;;;;;;5.66;100.00;96407.78;5100899;28;19924;-87
2023/04/16 06:49:54;;;;;;;;;;;;;;;5.67;100.00;96417.47;5097838;28;19946;-87
2023/04/16 06:52:21;;;;;;;;;;;;;;;5.65;100.00;96410.66;5101477;28;20015;-86
2023/04/16 06:54:48;;;;;;;;;;;;;;;5.61;100.00;96420.13;5100416;28;19924;-88
2023/04/16 06:57:15;;;;;;;;;;;;;;;5.59;100.00;96412.28;5109582;28;19931;-85
2023/04/16 06:59:41;;;;;;;;;;;;;;;5.53;100.00;96423.75;5109614;28;19931;-87
2023/04/16 07:02:10;;;;;;;;;;;;;;;5.55;100.00;96421.72;5103112;28;19930;-87
2023/04/16 07:04:37;;;;;;;;;;;;;;;5.53;100.00;96422.97;5113826;28;19924;-87
2023/04/16 07:07:04;;;;;;;;;;;;;;;5.52;100.00;96421.31;5111957;28;19932;-86
2023/04/16 07:09:30;;;;;;;;;;;;;;;5.54;100.00;96436.13;5107286;28;19923;-86
2023/04/16 07:11:57;;;;;;;;;;;;;;;5.51;100.00;96431.19;5110694;28;19924;-87
2023/04/16 07:14:24;;;;;;;;;;;;;;;5.53;100.00;96433.69;5098798;28;20096;-87
2023/04/16 07:16:51;;;;;;;;;;;;;;;5.51;100.00;96431.19;5102974;28;19923;-87
2023/04/16 07:19:19;;;;;;;;;;;;;;;5.53;100.00;96429.13;5106258;28;19924;-87
2023/04/16 07:21:46;;;;;;;;;;;;;;;5.53;100.00;96429.13;5108170;28;19991;-86
2023/04/16 07:24:13;;;;;;;;;;;;;;;5.57;100.00;96429.56;5109029;28;19938;-86
2023/04/16 07:26:40;;;;;;;;;;;;;;;5.55;100.00;96428.94;5134178;27;19924;-87
2023/04/16 07:29:08;;;;;;;;;;;;;;;5.57;100.00;96430.38;5110213;28;19931;-87
2023/04/16 07:31:34;;;;;;;;;;;;;;;5.54;100.00;96429.94;5124245;27;19924;-86
2023/04/16 07:34:01;;;;;;;;;;;;;;;5.57;100.00;96430.38;5104443;28;19924;-87
2023/04/16 07:36:30;;;;;;;;;;;;;;;5.62;100.00;96437.81;5101477;28;20024;-87
2023/04/16 07:38:57;;;;;;;;;;;;;;;5.65;100.00;96434.75;5097757;28;19924;-87
2023/04/16 07:41:26;;;;;;;;;;;;;;;5.61;100.00;96439.66;5092418;28;20010;-86
2023/04/16 07:43:52;;;;;;;;;;;;;;;5.59;100.00;96441.75;5112982;28;19955;-87
2023/04/16 07:46:19;;;;;;;;;;;;;;;5.66;100.00;96444.47;5112996;28;19924;-87
2023/04/16 07:48:46;;;;;;;;;;;;;;;5.67;100.00;96446.13;5104846;28;19931;-87
2023/04/16 07:51:13;;;;;;;;;;;;;;;5.68;100.00;96450.44;5099407;28;19977;-86
2023/04/16 07:53:42;;;;;;;;;;;;;;;5.76;100.00;96452.97;5094342;28;20026;-88
2023/04/16 07:56:09;;;;;;;;;;;;;;;5.71;100.00;96453.53;5109565;28;19924;-86
2023/04/16 07:58:35;;;;;;;;;;;;;;;5.70;100.00;96464.44;5127422;27;20018;-88
2023/04/16 08:01:02;;;;;;;;;;;;;;;5.75;100.00;96459.34;5115682;27;19974;-86
2023/04/16 08:03:29;;;;;;;;;;;;;;;5.73;100.00;96461.38;5096027;28;19931;-87
2023/04/16 08:05:56;;;;;;;;;;;;;;;5.68;100.00;96469.19;5111139;28;19969;-88
2023/04/16 08:08:22;;;;;;;;;;;;;;;5.75;100.00;96474.59;5111109;28;19950;-87
2023/04/16 08:10:54;;;;;;;;;;;;;;;5.73;100.00;96477.47;5108187;28;20036;-88
2023/04/16 08:13:22;;;;;;;;;;;;;;;5.69;100.00;96481.56;5106787;28;19928;-86
2023/04/16 08:15:48;;;;;;;;;;;;;;;5.73;100.00;96482.81;5103279;28;19930;-87
2023/04/16 08:18:15;;;;;;;;;;;;;;;5.79;100.00;96486.56;5102585;28;19969;-87
2023/04/16 08:20:42;;;;;;;;;;;;;;;5.80;100.00;96483.69;5106747;28;19927;-87
2023/04/16 08:23:09;;;;;;;;;;;;;;;5.84;100.00;96490.31;5104717;28;19924;-87
2023/04/16 08:25:36;;;;;;;;;;;;;;;5.85;100.00;96483.09;5100947;28;19932;-87
2023/04/16 08:28:04;;;;;;;;;;;;;;;5.91;100.00;96488.53;5096258;28;19970;-85
2023/04/16 08:30:31;;;;;;;;;;;;;;;5.96;100.00;96490.59;5120844;27;20027;-88
2023/04/16 08:32:58;;;;;;;;;;;;;;;6.01;100.00;96497.03;5099509;28;19931;-86
2023/04/16 08:35:25;;;;;;;;;;;;;;;6.03;100.00;96497.69;5115019;28;19932;-87
2023/04/16 08:37:52;;;;;;;;;;;;;;;5.97;100.00;96498.47;5116485;28;19931;-87
2023/04/16 08:40:19;;;;;;;;;;;;;;;5.89;100.00;96498.63;5115020;28;20259;-85
2023/04/16 08:42:53;;;;;;;;;;;;;;;5.93;100.00;96505.25;5108653;28;19924;-87
2023/04/16 08:45:21;;;;;;;;;;;;;;;6.05;100.00;96503.66;5108929;28;19977;-87
2023/04/16 08:47:48;;;;;;;;;;;;;;;6.11;100.00;96509.25;5108870;28;19924;-88
2023/04/16 08:50:16;;;;;;;;;;;;;;;6.18;100.00;96512.81;5107170;28;19924;-85
2023/04/16 08:52:46;;;;;;;;;;;;;;;6.22;100.00;96508.69;5115687;28;19924;-86
2023/04/16 08:55:13;;;;;;;;;;;;;;;6.25;100.00;96497.56;5110952;28;19924;-87
2023/04/16 08:57:44;;;;;;;;;;;;;;;6.24;100.00;96512.81;5106521;28;19950;-87
2023/04/16 09:00:12;;;;;;;;;;;;;;;6.27;100.00;96506.25;5106853;28;19930;-87
2023/04/16 09:02:40;;;;;;;;;;;;;;;6.26;100.00;96508.09;5110630;28;19927;-87
2023/04/16 09:05:10;;;;;;;;;;;;;;;6.28;100.00;96507.91;5134065;27;19928;-86
2023/04/16 09:07:37;;;;;;;;;;;;;;;6.30;100.00;96517.38;5113331;28;19927;-88
2023/04/16 09:10:06;;;;;;;;;;;;;;;6.34;100.00;96517.81;5100241;28;19928;-87
2023/04/16 09:12:34;;;;;;;;;;;;;;;6.31;100.00;96520.91;5104101;28;19931;-87
2023/04/16 09:15:03;;;;;;;;;;;;;;;6.30;100.00;96521.91;5113712;28;19924;-87
2023/04/16 09:17:30;;;;;;;;;;;;;;;6.31;100.00;96519.03;5115694;28;19931;-87
2023/04/16 09:19:58;;;;;;;;;;;;;;;6.28;100.00;96519.47;5112809;28;19942;-88
2023/04/16 09:22:25;;;;;;;;;;;;;;;6.34;100.00;96524.03;5114319;27;19932;-87
2023/04/16 09:24:51;;;;;;;;;;;;;;;6.37;100.00;96531.69;5108427;28;19931;-87
2023/04/16 09:27:18;;;;;;;;;;;;;;;6.34;100.00;96532.06;5113360;28;19985;-87
2023/04/16 09:29:45;;;;;;;;;;;;;;;6.42;100.00;96523.84;5100692;28;19923;-87
2023/04/16 09:32:12;;;;;;;;;;;;;;;6.41;100.00;96530.25;5113482;28;19969;-87
2023/04/16 09:34:54;;;;;;;;;;;;;;;6.31;100.00;96526.25;5116274;28;19935;-87
2023/04/16 09:37:22;;;;;;;;;;;;;;;6.25;100.00;96529.75;5113277;28;19924;-87
2023/04/16 09:39:53;;;;;;;;;;;;;;;6.28;100.00;96534.72;5109810;28;19931;-85
2023/04/16 09:42:22;;;;;;;;;;;;;;;6.22;100.00;96540.84;5108498;28;20015;-86
2023/04/16 09:44:49;;;;;;;;;;;;;;;6.21;100.00;96523.94;5109237;28;19924;-87
2023/04/16 09:47:16;;;;;;;;;;;;;;;6.10;100.00;96537.94;5115414;28;19934;-87
2023/04/16 09:49:43;;;;;;;;;;;;;;;6.14;100.00;96531.13;5098984;28;19965;-87
2023/04/16 09:52:13;;;;;;;;;;;;;;;6.13;100.00;96539.34;5107656;28;19974;-88
2023/04/16 09:54:45;;;;;;;;;;;;;;;6.14;100.00;96541.03;5102400;28;19924;-86
2023/04/16 09:57:12;;;;;;;;;;;;;;;6.16;100.00;96537.13;5100793;28;20031;-87
2023/04/16 09:59:39;;;;;;;;;;;;;;;6.13;100.00;96542.88;5098902;28;19931;-87
2023/04/16 10:02:07;;;;;;;;;;;;;;;6.18;100.00;96542.28;5116074;28;19928;-87
2023/04/16 10:04:44;;;;;;;;;;;;;;;6.20;100.00;96548.28;5113845;28;19923;-88
2023/04/16 10:07:12;;;;;;;;;;;;;;;6.27;100.00;96543.78;5105058;28;19931;-87
2023/04/16 10:09:38;;;;;;;;;;;;;;;6.29;100.00;96542.56;5104903;28;20074;-87
2023/04/16 10:12:07;;;;;;;;;;;;;;;6.29;100.00;96547.09;5118626;27;19936;-87
2023/04/16 10:14:33;;;;;;;;;;;;;;;6.21;100.00;96552.63;5111113;28;19928;-88
2023/04/16 10:17:00;;;;;;;;;;;;;;;6.23;100.00;96542.50;5108328;28;19932;-87
2023/04/16 10:19:27;;;;;;;;;;;;;;;6.19;100.00;96541.28;5097550;28;19991;-88
2023/04/16 10:21:55;;;;;;;;;;;;;;;6.23;100.00;96547.88;5095392;28;19935;-86
2023/04/16 10:24:22;;;;;;;;;;;;;;;6.28;100.00;96540.09;5104460;28;19963;-87
2023/04/16 10:26:50;;;;;;;;;;;;;;;6.35;100.00;96541.78;5113269;28;20018;-86
2023/04/16 10:29:19;;;;;;;;;;;;;;;6.28;100.00;96538.22;5114569;28;20018;-86
2023/04/16 10:31:46;;;;;;;;;;;;;;;6.31;100.00;96545.03;5117431;27;19936;-88
2023/04/16 10:34:14;;;;;;;;;;;;;;;6.38;100.00;96540.56;5106078;28;19924;-87
2023/04/16 10:36:41;;;;;;;;;;;;;;;6.38;100.00;96543.22;5114188;28;19992;-87
2023/04/16 10:39:10;;;;;;;;;;;;;;;6.33;100.00;96542.97;5112390;28;19924;-87
2023/04/16 10:41:37;;;;;;;;;;;;;;;6.25;100.00;96551.19;5095708;28;19935;-88
2023/04/16 10:44:08;;;;;;;;;;;;;;;6.18;100.00;96548.50;5099224;28;19924;-87
2023/04/16 10:46:38;;;;;;;;;;;;;;;6.16;100.00;96547.84;5110457;28;20022;-88
2023/04/16 10:49:14;;;;;;;;;;;;;;;6.14;100.00;96535.66;5106601;28;19928;-88
2023/04/16 10:51:41;;;;;;;;;;;;;;;6.19;100.00;96547.47;5109879;28;19974;-88
2023/04/16 10:54:19;;;;;;;;;;;;;;;6.21;100.00;96547.28;5110194;28;19932;-88
2023/04/16 10:56:46;;;;;;;;;;;;;;;6.23;100.00;96545.19;5099280;28;19964;-87
2023/04/16 10:59:13;;;;;;;;;;;;;;;6.20;100.00;96538.41;5114759;28;19924;-87
2023/04/16 11:01:43;;;;;;;;;;;;;;;6.21;100.00;96539.22;5113822;28;20011;-86
2023/04/16 11:04:28;;;;;;;;;;;;;;;6.29;100.00;96541.75;5107707;28;19928;-87
2023/04/16 11:07:02;;;;;;;;;;;;;;;6.36;100.00;96542.59;5101740;28;19924;-88
2023/04/16 11:09:59;;;;;;;;;;;;;;;6.35;100.00;96546.31;5096912;28;19956;-87
2023/04/16 11:12:27;;;;;;;;;;;;;;;6.42;100.00;96544.47;5030432;28;19929;-87
2023/04/16 11:14:55;;;;;;;;;;;;;;;6.40;100.00;96546.53;5081375;28;19924;-86
2023/04/16 11:17:23;;;;;;;;;;;;;;;6.36;100.00;96539.91;5109594;28;19980;-87
2023/04/16 11:19:50;;;;;;;;;;;;;;;6.31;100.00;96542.34;5112721;28;19924;-88
2023/04/16 11:22:17;;;;;;;;;;;;;;;6.29;100.00;96536.38;5104929;28;19935;-86
2023/04/16 11:24:45;;;;;;;;;;;;;;;6.27;100.00;96539.25;5108274;28;19978;-86
2023/04/16 11:27:12;;;;;;;;;;;;;;;6.35;100.00;96541.78;5098238;28;19924;-87
2023/04/16 11:29:39;;;;;;;;;;;;;;;6.36;100.00;96542.59;5111208;28;19924;-87
2023/04/16 11:32:06;;;;;;;;;;;;;;;6.41;100.00;96545.50;5094691;28;19992;-86
2023/04/16 11:34:34;;;;;;;;;;;;;;;6.49;100.00;96542.66;5105975;28;19928;-87
2023/04/16 11:37:01;;;;;;;;;;;;;;;6.55;100.00;96543.72;5111229;28;19931;-88
2023/04/16 11:39:28;;;;;;;;;;;;;;;6.63;100.00;96544.38;5111953;28;20006;-87
2023/04/16 11:41:55;;;;;;;;;;;;;;;6.59;100.00;96537.75;5110044;28;19939;-86
2023/04/16 11:44:22;;;;;;;;;;;;;;;6.56;100.00;96540.81;5104137;28;19931;-87
2023/04/16 11:46:49;;;;;;;;;;;;;;;6.64;100.00;96539.81;5111277;28;19924;-87
2023/04/16 11:49:16;;;;;;;;;;;;;;;6.62;100.00;96542.72;5106235;28;19964;-86
2023/04/16 11:51:45;;;;;;;;;;;;;;;6.67;100.00;96544.78;5100704;28;19924;-87
2023/04/16 11:54:19;;;;;;;;;;;;;;;6.74;100.00;96541.09;5101993;27;19924;-87
2023/04/16 11:56:46;;;;;;;;;;;;;;;6.73;100.00;96538.59;5109878;28;19923;-87
2023/04/16 11:59:14;;;;;;;;;;;;;;;6.73;100.00;96535.91;5096114;28;19924;-87
2023/04/16 12:01:44;;;;;;;;;;;;;;;6.72;100.00;96537.78;5106022;28;19955;-88
2023/04/16 12:04:11;;;;;;;;;;;;;;;6.67;100.00;96542.94;5099941;28;20031;-87
2023/04/16 12:06:38;;;;;;;;;;;;;;;6.73;100.00;96539.44;5108140;28;19994;-86
2023/04/16 12:09:20;;;;;;;;;;;;;;;6.78;100.00;96546.91;5095016;28;19932;-87
2023/04/16 12:11:48;;;;;;;;;;;;;;;6.78;100.00;96553.09;5098831;28;20030;-87
2023/04/16 12:14:15;;;;;;;;;;;;;;;6.86;100.00;96553.94;5111677;28;19932;-87
2023/04/16 12:16:41;;;;;;;;;;;;;;;6.91;100.00;96548.78;5110772;28;19930;-87
2023/04/16 12:19:11;;;;;;;;;;;;;;;6.99;100.00;96551.28;5105031;28;19924;-88
2023/04/16 12:21:40;;;;;;;;;;;;;;;6.98;100.00;96549.63;5105199;28;19924;-87
2023/04/16 12:24:07;;;;;;;;;;;;;;;6.96;100.00;96551.69;5097726;28;19970;-88
2023/04/16 12:26:44;;;;;;;;;;;;;;;7.02;100.00;96553.56;5095758;28;19931;-88
2023/04/16 12:29:16;;;;;;;;;;;;;;;7.07;100.00;96551.09;5109349;28;19957;-87
2023/04/16 12:31:43;;;;;;;;;;;;;;;7.04;100.00;96554.19;5093364;28;19924;-87
2023/04/16 12:34:10;;;;;;;;;;;;;;;6.95;100.00;96558.09;5100021;28;19931;-87
2023/04/16 12:36:37;;;;;;;;;;;;;;;6.97;100.00;96551.50;5100376;28;19966;-88
2023/04/16 12:39:04;;;;;;;;;;;;;;;6.95;100.00;96552.72;5110219;28;19927;-89
2023/04/16 12:41:30;;;;;;;;;;;;;;;7.02;100.00;96559.75;5113389;28;19924;-87
2023/04/16 12:44:03;;;;;;;;;;;;;;;7.07;100.00;96551.91;5103611;28;19934;-87
2023/04/16 12:46:31;;;;;;;;;;;;;;;7.17;100.00;96548.84;5109738;28;19923;-86
2023/04/16 12:48:58;;;;;;;;;;;;;;;7.21;100.00;96547.41;5111020;28;20022;-87
2023/04/16 12:51:25;;;;;;;;;;;;;;;7.23;100.00;96548.84;5111516;28;19924;-87